LFSBLSZC

Guest
Details From LFSB - Basle-mulhouse
To LSZC - Buochs
Flight Number -
Tags Generated
Created
Modified
Stats Distance 52 nm / 96 km
Max Altitude 0 ft / 0 m
Waypoints 2
Social Downloads 1
Likes 0
Share VATSIM

Download

Looking for another format? Having issues loading an existing format? Contact us
Advertisement - Login to hide

Notes

Generated

Route

LFSB LSZC

ID Type Via Altitude Latitude Longitude Leg Dist Tot Dist Heading (true) Name
O LFSB APT - 0 ft / 0 m 47.60118˚ 7.51797˚ - 0 nm - Bale-Mulhouse
O LSZC APT - 0 ft / 0 m 46.97088˚ 8.39004˚ 51 nm 51 nm 136° / 137° -

Altitude Profile

Advertisement - Login to hide

LFSB

Details ICAO LFSB (MLH)
Name Bale-Mulhouse
Region France
Timezone Europe/Paris (UTC+1.0)
Stats Elevation 885 ft / 270 m (AMSL)
Location 47.595810° 7.524806°
Runways 2
Magnetic Variation 2.083° E

METAR

LFSB 110030Z AUTO 15004KT 110V180 9999 -RA SCT046/// BKN060/// OVC074/// 05/04 Q0988 TEMPO BKN008

Decode

TAF

TAF LFSB 102300Z 1100/1124 15008KT 9999 -RA SCT050 BKN080 PROB30 TEMPO 1100/1104 BKN008 TEMPO 1106/1114 4000 RA PROB30 TEMPO 1110/1115 2000 +RA BKN014 BECMG 1112/1114 21012G22KT

Decode

Departure Runways

ID Width Length Bearing (true) Bearing (mag) Surface Threshold Offset Overrun Length
08 193 ft / 59 m 5,956 ft / 1,816 m 76.91° 74.83° Concrete 0 ft / 0 m 0 ft / 0 m
15 197 ft / 60 m 12,802 ft / 3,902 m 154.86° 152.78° Concrete 0 ft / 0 m 0 ft / 0 m
26 193 ft / 59 m 5,956 ft / 1,816 m 256.93° 254.85° Concrete 722 ft / 220 m 0 ft / 0 m
33 197 ft / 60 m 12,802 ft / 3,902 m 334.88° 332.80° Concrete 3,675 ft / 1,120 m 0 ft / 0 m

LSZC

Details ICAO LSZC (BXO)
Name Buochs
Region Switzerland
Timezone Europe/Zurich (UTC+1.0)
Stats Elevation 1,475 ft / 450 m (AMSL)
Location 46.973188° 8.397360°
Runways 2
Magnetic Variation 2.305° E

METAR

LSZC 110020Z AUTO 25004KT 200V330 9999 -RA BKN110 BKN130 02/02 Q0990 RERASN

Decode

TAF

Not found

Destination Runways

ID Width Length Bearing (true) Bearing (mag) Surface Threshold Offset Overrun Length
07L 131 ft / 40 m 6,570 ft / 2,002 m 64.09° 61.79° Asphalt 0 ft / 0 m 650 ft / 198 m
07R 131 ft / 40 m 4,827 ft / 1,471 m 64.00° 61.70° Asphalt 0 ft / 0 m 1,161 ft / 354 m
25L 131 ft / 40 m 4,827 ft / 1,471 m 244.02° 241.72° Asphalt 0 ft / 0 m 1,161 ft / 354 m
25R 131 ft / 40 m 6,570 ft / 2,002 m 244.11° 241.81° Asphalt 0 ft / 0 m 650 ft / 198 m